sensor_id;sensor_type;location;lat;lon;timestamp;P1;durP1;ratioP1;P2;durP2;ratioP2
40931;SDS011;36257;46.052;12.540;2023-05-10T00:01:04;6.80;;;2.70;;
40931;SDS011;36257;46.052;12.540;2023-05-10T00:03:29;3.72;;;2.75;;
40931;SDS011;36257;46.052;12.540;2023-05-10T00:05:55;2.75;;;2.47;;
40931;SDS011;36257;46.052;12.540;2023-05-10T00:08:20;3.28;;;2.50;;
40931;SDS011;36257;46.052;12.540;2023-05-10T00:10:46;6.43;;;2.50;;
40931;SDS011;36257;46.052;12.540;2023-05-10T00:13:12;3.92;;;2.47;;
40931;SDS011;36257;46.052;12.540;2023-05-10T00:15:38;4.07;;;2.63;;
40931;SDS011;36257;46.052;12.540;2023-05-10T00:18:03;3.17;;;2.50;;
40931;SDS011;36257;46.052;12.540;2023-05-10T00:20:29;2.78;;;2.53;;
40931;SDS011;36257;46.052;12.540;2023-05-10T00:22:55;3.03;;;2.40;;
40931;SDS011;36257;46.052;12.540;2023-05-10T00:25:21;6.13;;;2.63;;
40931;SDS011;36257;46.052;12.540;2023-05-10T00:27:46;2.80;;;2.38;;
40931;SDS011;36257;46.052;12.540;2023-05-10T00:30:12;4.43;;;2.83;;
40931;SDS011;36257;46.052;12.540;2023-05-10T00:32:38;8.40;;;3.15;;
40931;SDS011;36257;46.052;12.540;2023-05-10T00:35:04;4.43;;;3.05;;
40931;SDS011;36257;46.052;12.540;2023-05-10T00:37:30;2.50;;;2.30;;
40931;SDS011;36257;46.052;12.540;2023-05-10T00:39:55;7.18;;;3.00;;
40931;SDS011;36257;46.052;12.540;2023-05-10T00:42:21;5.20;;;2.42;;
40931;SDS011;36257;46.052;12.540;2023-05-10T00:44:47;4.78;;;2.50;;
40931;SDS011;36257;46.052;12.540;2023-05-10T00:47:12;4.82;;;2.85;;
40931;SDS011;36257;46.052;12.540;2023-05-10T00:49:38;5.00;;;2.58;;
40931;SDS011;36257;46.052;12.540;2023-05-10T00:52:05;3.58;;;2.10;;
40931;SDS011;36257;46.052;12.540;2023-05-10T00:54:31;2.58;;;2.38;;
40931;SDS011;36257;46.052;12.540;2023-05-10T00:56:57;3.22;;;2.45;;
40931;SDS011;36257;46.052;12.540;2023-05-10T00:59:23;6.07;;;3.03;;
40931;SDS011;36257;46.052;12.540;2023-05-10T01:01:49;6.68;;;2.40;;
40931;SDS011;36257;46.052;12.540;2023-05-10T01:04:16;5.30;;;2.45;;
40931;SDS011;36257;46.052;12.540;2023-05-10T01:06:42;6.47;;;2.92;;
40931;SDS011;36257;46.052;12.540;2023-05-10T01:09:08;4.03;;;2.45;;
40931;SDS011;36257;46.052;12.540;2023-05-10T01:11:35;2.78;;;2.58;;
40931;SDS011;36257;46.052;12.540;2023-05-10T01:14:03;2.83;;;2.63;;
40931;SDS011;36257;46.052;12.540;2023-05-10T01:16:31;2.75;;;2.55;;
40931;SDS011;36257;46.052;12.540;2023-05-10T01:19:01;4.07;;;2.85;;
40931;SDS011;36257;46.052;12.540;2023-05-10T01:33:27;3.03;;;2.75;;
40931;SDS011;36257;46.052;12.540;2023-05-10T01:41:51;3.25;;;2.72;;
40931;SDS011;36257;46.052;12.540;2023-05-10T01:44:29;8.57;;;2.75;;
40931;SDS011;36257;46.052;12.540;2023-05-10T01:47:07;4.70;;;3.17;;
40931;SDS011;36257;46.052;12.540;2023-05-10T01:49:52;3.40;;;3.08;;
40931;SDS011;36257;46.052;12.540;2023-05-10T01:52:22;2.67;;;2.42;;
40931;SDS011;36257;46.052;12.540;2023-05-10T01:54:55;4.50;;;2.45;;
40931;SDS011;36257;46.052;12.540;2023-05-10T01:57:27;3.95;;;2.70;;
40931;SDS011;36257;46.052;12.540;2023-05-10T01:59:59;3.85;;;2.88;;
40931;SDS011;36257;46.052;12.540;2023-05-10T02:02:30;2.97;;;2.78;;
40931;SDS011;36257;46.052;12.540;2023-05-10T02:04:59;10.00;;;2.97;;
40931;SDS011;36257;46.052;12.540;2023-05-10T02:07:28;2.92;;;2.72;;
40931;SDS011;36257;46.052;12.540;2023-05-10T02:09:54;3.50;;;2.63;;
40931;SDS011;36257;46.052;12.540;2023-05-10T02:12:22;4.13;;;2.57;;
40931;SDS011;36257;46.052;12.540;2023-05-10T02:14:50;3.25;;;2.88;;
40931;SDS011;36257;46.052;12.540;2023-05-10T02:17:18;3.45;;;2.95;;
40931;SDS011;36257;46.052;12.540;2023-05-10T02:19:45;4.88;;;2.90;;
40931;SDS011;36257;46.052;12.540;2023-05-10T02:22:12;2.97;;;2.67;;
40931;SDS011;36257;46.052;12.540;2023-05-10T02:24:39;5.15;;;3.25;;
40931;SDS011;36257;46.052;12.540;2023-05-10T02:27:06;2.70;;;2.47;;
40931;SDS011;36257;46.052;12.540;2023-05-10T02:29:34;4.13;;;2.83;;
40931;SDS011;36257;46.052;12.540;2023-05-10T02:32:01;3.42;;;3.20;;
40931;SDS011;36257;46.052;12.540;2023-05-10T02:34:28;3.80;;;3.03;;
40931;SDS011;36257;46.052;12.540;2023-05-10T02:36:55;5.37;;;3.27;;
40931;SDS011;36257;46.052;12.540;2023-05-10T02:39:22;8.10;;;3.38;;
40931;SDS011;36257;46.052;12.540;2023-05-10T02:41:49;3.10;;;2.80;;
40931;SDS011;36257;46.052;12.540;2023-05-10T02:44:19;3.67;;;2.60;;
40931;SDS011;36257;46.052;12.540;2023-05-10T02:46:47;5.10;;;2.90;;
40931;SDS011;36257;46.052;12.540;2023-05-10T02:49:13;5.03;;;3.30;;
40931;SDS011;36257;46.052;12.540;2023-05-10T02:51:44;4.32;;;3.03;;
40931;SDS011;36257;46.052;12.540;2023-05-10T02:54:18;2.53;;;2.33;;
40931;SDS011;36257;46.052;12.540;2023-05-10T02:56:50;3.13;;;2.80;;
40931;SDS011;36257;46.052;12.540;2023-05-10T02:59:18;2.95;;;2.75;;
40931;SDS011;36257;46.052;12.540;2023-05-10T03:01:44;3.65;;;2.80;;
40931;SDS011;36257;46.052;12.540;2023-05-10T03:04:10;2.67;;;2.47;;
40931;SDS011;36257;46.052;12.540;2023-05-10T03:06:36;4.35;;;2.88;;
40931;SDS011;36257;46.052;12.540;2023-05-10T03:09:01;4.60;;;3.15;;
40931;SDS011;36257;46.052;12.540;2023-05-10T03:11:32;4.60;;;2.90;;
40931;SDS011;36257;46.052;12.540;2023-05-10T03:19:51;3.45;;;3.10;;
40931;SDS011;36257;46.052;12.540;2023-05-10T03:22:24;5.80;;;3.17;;
40931;SDS011;36257;46.052;12.540;2023-05-10T03:24:55;4.40;;;3.00;;
40931;SDS011;36257;46.052;12.540;2023-05-10T03:27:23;4.20;;;3.30;;
40931;SDS011;36257;46.052;12.540;2023-05-10T03:32:16;2.75;;;2.53;;
40931;SDS011;36257;46.052;12.540;2023-05-10T03:34:42;3.60;;;2.90;;
40931;SDS011;36257;46.052;12.540;2023-05-10T03:37:10;5.00;;;2.75;;
40931;SDS011;36257;46.052;12.540;2023-05-10T03:39:36;4.50;;;3.00;;
40931;SDS011;36257;46.052;12.540;2023-05-10T03:42:01;5.20;;;3.03;;
40931;SDS011;36257;46.052;12.540;2023-05-10T03:44:27;3.95;;;2.70;;
40931;SDS011;36257;46.052;12.540;2023-05-10T03:46:53;4.63;;;3.58;;
40931;SDS011;36257;46.052;12.540;2023-05-10T03:49:18;6.32;;;3.17;;
40931;SDS011;36257;46.052;12.540;2023-05-10T03:51:44;4.18;;;3.80;;
40931;SDS011;36257;46.052;12.540;2023-05-10T03:54:10;6.07;;;3.17;;
40931;SDS011;36257;46.052;12.540;2023-05-10T03:56:35;7.63;;;3.15;;
40931;SDS011;36257;46.052;12.540;2023-05-10T03:59:01;3.22;;;3.03;;
40931;SDS011;36257;46.052;12.540;2023-05-10T04:01:26;3.45;;;3.15;;
40931;SDS011;36257;46.052;12.540;2023-05-10T04:03:52;4.93;;;3.20;;
40931;SDS011;36257;46.052;12.540;2023-05-10T04:06:19;7.43;;;3.77;;
40931;SDS011;36257;46.052;12.540;2023-05-10T04:08:44;3.72;;;3.33;;
40931;SDS011;36257;46.052;12.540;2023-05-10T04:11:11;4.18;;;3.55;;
40931;SDS011;36257;46.052;12.540;2023-05-10T04:13:37;5.30;;;3.28;;
40931;SDS011;36257;46.052;12.540;2023-05-10T04:16:03;3.10;;;2.80;;
40931;SDS011;36257;46.052;12.540;2023-05-10T04:18:30;5.15;;;3.33;;
40931;SDS011;36257;46.052;12.540;2023-05-10T04:20:56;4.03;;;3.05;;
40931;SDS011;36257;46.052;12.540;2023-05-10T04:23:22;3.88;;;3.08;;
40931;SDS011;36257;46.052;12.540;2023-05-10T04:25:48;7.22;;;3.30;;
40931;SDS011;36257;46.052;12.540;2023-05-10T04:28:13;6.13;;;3.47;;
40931;SDS011;36257;46.052;12.540;2023-05-10T04:30:40;4.90;;;3.72;;
40931;SDS011;36257;46.052;12.540;2023-05-10T04:33:06;4.47;;;3.20;;
40931;SDS011;36257;46.052;12.540;2023-05-10T04:35:32;3.58;;;3.28;;
40931;SDS011;36257;46.052;12.540;2023-05-10T04:37:57;5.38;;;3.40;;
40931;SDS011;36257;46.052;12.540;2023-05-10T04:40:23;4.78;;;3.25;;
40931;SDS011;36257;46.052;12.540;2023-05-10T04:42:48;4.00;;;3.70;;
40931;SDS011;36257;46.052;12.540;2023-05-10T04:45:14;4.10;;;3.30;;
40931;SDS011;36257;46.052;12.540;2023-05-10T04:47:40;4.10;;;3.65;;
40931;SDS011;36257;46.052;12.540;2023-05-10T04:50:06;3.95;;;3.50;;
40931;SDS011;36257;46.052;12.540;2023-05-10T04:52:33;3.83;;;3.42;;
40931;SDS011;36257;46.052;12.540;2023-05-10T04:54:58;6.47;;;4.10;;
40931;SDS011;36257;46.052;12.540;2023-05-10T04:57:24;6.00;;;3.95;;
40931;SDS011;36257;46.052;12.540;2023-05-10T04:59:50;4.88;;;3.80;;
40931;SDS011;36257;46.052;12.540;2023-05-10T05:02:16;5.63;;;3.47;;
40931;SDS011;36257;46.052;12.540;2023-05-10T05:04:41;3.85;;;3.40;;
40931;SDS011;36257;46.052;12.540;2023-05-10T05:07:07;5.72;;;3.90;;
40931;SDS011;36257;46.052;12.540;2023-05-10T05:09:33;6.00;;;3.80;;
40931;SDS011;36257;46.052;12.540;2023-05-10T05:11:58;3.90;;;3.60;;
40931;SDS011;36257;46.052;12.540;2023-05-10T05:14:25;4.20;;;3.88;;
40931;SDS011;36257;46.052;12.540;2023-05-10T05:16:53;4.97;;;3.50;;
40931;SDS011;36257;46.052;12.540;2023-05-10T05:19:22;5.03;;;3.80;;
40931;SDS011;36257;46.052;12.540;2023-05-10T05:21:47;3.58;;;3.28;;
40931;SDS011;36257;46.052;12.540;2023-05-10T05:24:13;4.30;;;3.83;;
40931;SDS011;36257;46.052;12.540;2023-05-10T05:26:39;6.35;;;3.85;;
40931;SDS011;36257;46.052;12.540;2023-05-10T05:29:04;4.90;;;3.95;;
40931;SDS011;36257;46.052;12.540;2023-05-10T05:31:30;4.22;;;3.70;;
40931;SDS011;36257;46.052;12.540;2023-05-10T05:33:55;4.20;;;3.53;;
40931;SDS011;36257;46.052;12.540;2023-05-10T05:36:21;3.78;;;3.47;;
40931;SDS011;36257;46.052;12.540;2023-05-10T05:38:47;4.15;;;3.60;;
40931;SDS011;36257;46.052;12.540;2023-05-10T05:41:13;4.15;;;3.55;;
40931;SDS011;36257;46.052;12.540;2023-05-10T05:43:38;6.63;;;3.33;;
40931;SDS011;36257;46.052;12.540;2023-05-10T05:46:04;4.07;;;3.35;;
40931;SDS011;36257;46.052;12.540;2023-05-10T05:48:30;4.30;;;3.35;;
40931;SDS011;36257;46.052;12.540;2023-05-10T05:50:56;4.22;;;3.05;;
40931;SDS011;36257;46.052;12.540;2023-05-10T05:53:22;4.93;;;3.10;;
40931;SDS011;36257;46.052;12.540;2023-05-10T05:55:55;4.93;;;3.45;;
40931;SDS011;36257;46.052;12.540;2023-05-10T05:58:22;3.63;;;3.33;;
40931;SDS011;36257;46.052;12.540;2023-05-10T06:00:49;5.50;;;3.83;;
40931;SDS011;36257;46.052;12.540;2023-05-10T06:03:15;4.30;;;3.38;;
40931;SDS011;36257;46.052;12.540;2023-05-10T06:05:41;4.20;;;3.58;;
40931;SDS011;36257;46.052;12.540;2023-05-10T06:08:07;4.53;;;3.10;;
40931;SDS011;36257;46.052;12.540;2023-05-10T06:10:32;3.90;;;2.47;;
40931;SDS011;36257;46.052;12.540;2023-05-10T06:12:58;3.20;;;2.97;;
40931;SDS011;36257;46.052;12.540;2023-05-10T06:15:24;3.53;;;3.03;;
40931;SDS011;36257;46.052;12.540;2023-05-10T06:17:50;3.83;;;2.95;;
40931;SDS011;36257;46.052;12.540;2023-05-10T06:20:15;6.95;;;3.30;;
40931;SDS011;36257;46.052;12.540;2023-05-10T06:22:41;6.35;;;2.70;;
40931;SDS011;36257;46.052;12.540;2023-05-10T06:25:07;4.22;;;3.20;;
40931;SDS011;36257;46.052;12.540;2023-05-10T06:27:33;3.58;;;3.28;;
40931;SDS011;36257;46.052;12.540;2023-05-10T06:29:59;5.18;;;2.70;;
40931;SDS011;36257;46.052;12.540;2023-05-10T06:32:25;5.85;;;3.20;;
40931;SDS011;36257;46.052;12.540;2023-05-10T06:34:50;5.72;;;3.00;;
40931;SDS011;36257;46.052;12.540;2023-05-10T06:37:17;3.25;;;2.78;;
40931;SDS011;36257;46.052;12.540;2023-05-10T06:39:42;3.08;;;2.78;;
40931;SDS011;36257;46.052;12.540;2023-05-10T06:42:08;4.10;;;3.00;;
40931;SDS011;36257;46.052;12.540;2023-05-10T06:44:34;2.95;;;2.75;;
40931;SDS011;36257;46.052;12.540;2023-05-10T06:46:59;3.33;;;3.03;;
40931;SDS011;36257;46.052;12.540;2023-05-10T06:49:25;3.00;;;2.70;;
40931;SDS011;36257;46.052;12.540;2023-05-10T06:51:51;3.05;;;2.55;;
40931;SDS011;36257;46.052;12.540;2023-05-10T06:54:16;2.55;;;2.35;;
40931;SDS011;36257;46.052;12.540;2023-05-10T06:56:42;3.17;;;2.28;;
40931;SDS011;36257;46.052;12.540;2023-05-10T06:59:08;3.17;;;2.30;;
40931;SDS011;36257;46.052;12.540;2023-05-10T07:01:34;2.50;;;2.30;;
40931;SDS011;36257;46.052;12.540;2023-05-10T07:03:59;3.92;;;2.95;;
40931;SDS011;36257;46.052;12.540;2023-05-10T07:06:25;2.38;;;2.17;;
40931;SDS011;36257;46.052;12.540;2023-05-10T07:08:51;6.00;;;2.55;;
40931;SDS011;36257;46.052;12.540;2023-05-10T07:11:17;4.53;;;2.58;;
40931;SDS011;36257;46.052;12.540;2023-05-10T07:13:42;2.72;;;2.53;;
40931;SDS011;36257;46.052;12.540;2023-05-10T07:16:09;4.18;;;2.47;;
40931;SDS011;36257;46.052;12.540;2023-05-10T07:18:35;3.97;;;2.33;;
40931;SDS011;36257;46.052;12.540;2023-05-10T07:21:01;2.30;;;2.20;;
40931;SDS011;36257;46.052;12.540;2023-05-10T07:23:27;4.03;;;2.67;;
40931;SDS011;36257;46.052;12.540;2023-05-10T07:25:53;4.97;;;2.47;;
40931;SDS011;36257;46.052;12.540;2023-05-10T07:28:19;3.97;;;3.28;;
40931;SDS011;36257;46.052;12.540;2023-05-10T07:30:45;3.20;;;2.90;;
40931;SDS011;36257;46.052;12.540;2023-05-10T07:33:11;3.50;;;2.60;;
40931;SDS011;36257;46.052;12.540;2023-05-10T07:35:38;2.70;;;2.25;;
40931;SDS011;36257;46.052;12.540;2023-05-10T07:38:04;3.97;;;2.25;;
40931;SDS011;36257;46.052;12.540;2023-05-10T07:40:30;2.58;;;2.38;;
40931;SDS011;36257;46.052;12.540;2023-05-10T07:42:55;3.10;;;2.80;;
40931;SDS011;36257;46.052;12.540;2023-05-10T07:45:21;4.30;;;2.30;;
40931;SDS011;36257;46.052;12.540;2023-05-10T07:47:48;5.10;;;3.13;;
40931;SDS011;36257;46.052;12.540;2023-05-10T07:50:13;4.75;;;2.65;;
40931;SDS011;36257;46.052;12.540;2023-05-10T07:52:39;5.20;;;2.40;;
40931;SDS011;36257;46.052;12.540;2023-05-10T07:55:05;3.17;;;2.70;;
40931;SDS011;36257;46.052;12.540;2023-05-10T07:57:32;3.92;;;2.70;;
40931;SDS011;36257;46.052;12.540;2023-05-10T07:59:58;3.90;;;2.72;;
40931;SDS011;36257;46.052;12.540;2023-05-10T08:02:24;5.88;;;2.55;;
40931;SDS011;36257;46.052;12.540;2023-05-10T08:04:50;4.13;;;2.75;;
40931;SDS011;36257;46.052;12.540;2023-05-10T08:07:16;3.47;;;2.40;;
40931;SDS011;36257;46.052;12.540;2023-05-10T08:09:42;2.58;;;2.38;;
40931;SDS011;36257;46.052;12.540;2023-05-10T08:12:08;7.15;;;2.72;;
40931;SDS011;36257;46.052;12.540;2023-05-10T08:14:33;3.72;;;2.85;;
40931;SDS011;36257;46.052;12.540;2023-05-10T08:19:27;3.40;;;3.10;;
40931;SDS011;36257;46.052;12.540;2023-05-10T08:21:52;3.80;;;2.65;;
40931;SDS011;36257;46.052;12.540;2023-05-10T08:24:20;4.47;;;2.50;;
40931;SDS011;36257;46.052;12.540;2023-05-10T08:26:46;2.85;;;2.40;;
40931;SDS011;36257;46.052;12.540;2023-05-10T08:29:12;3.42;;;2.47;;
40931;SDS011;36257;46.052;12.540;2023-05-10T08:31:38;2.70;;;2.50;;
40931;SDS011;36257;46.052;12.540;2023-05-10T08:34:04;2.55;;;2.20;;
40931;SDS011;36257;46.052;12.540;2023-05-10T08:36:30;2.67;;;2.47;;
40931;SDS011;36257;46.052;12.540;2023-05-10T08:38:57;3.63;;;2.58;;
40931;SDS011;36257;46.052;12.540;2023-05-10T08:41:23;2.75;;;2.55;;
40931;SDS011;36257;46.052;12.540;2023-05-10T08:43:50;6.55;;;3.20;;
40931;SDS011;36257;46.052;12.540;2023-05-10T08:46:21;5.38;;;2.92;;
40931;SDS011;36257;46.052;12.540;2023-05-10T08:48:48;3.55;;;3.25;;
40931;SDS011;36257;46.052;12.540;2023-05-10T08:56:08;3.55;;;3.17;;
40931;SDS011;36257;46.052;12.540;2023-05-10T08:58:34;3.20;;;2.88;;
40931;SDS011;36257;46.052;12.540;2023-05-10T09:03:28;3.22;;;2.90;;
40931;SDS011;36257;46.052;12.540;2023-05-10T09:05:55;3.67;;;3.13;;
40931;SDS011;36257;46.052;12.540;2023-05-10T09:08:21;4.38;;;3.15;;
40931;SDS011;36257;46.052;12.540;2023-05-10T09:10:50;3.22;;;2.92;;
40931;SDS011;36257;46.052;12.540;2023-05-10T09:13:17;4.18;;;3.55;;
40931;SDS011;36257;46.052;12.540;2023-05-10T09:15:44;3.47;;;3.13;;
40931;SDS011;36257;46.052;12.540;2023-05-10T09:18:10;3.55;;;3.25;;
40931;SDS011;36257;46.052;12.540;2023-05-10T09:20:36;4.20;;;3.20;;
40931;SDS011;36257;46.052;12.540;2023-05-10T09:23:01;4.10;;;3.35;;
40931;SDS011;36257;46.052;12.540;2023-05-10T09:25:27;3.95;;;3.38;;
40931;SDS011;36257;46.052;12.540;2023-05-10T09:27:53;6.13;;;3.85;;
40931;SDS011;36257;46.052;12.540;2023-05-10T09:30:24;4.88;;;4.32;;
40931;SDS011;36257;46.052;12.540;2023-05-10T09:32:51;3.50;;;3.20;;
40931;SDS011;36257;46.052;12.540;2023-05-10T09:35:18;4.78;;;3.53;;
40931;SDS011;36257;46.052;12.540;2023-05-10T09:37:46;3.85;;;3.28;;
40931;SDS011;36257;46.052;12.540;2023-05-10T09:43:02;5.68;;;3.78;;
40931;SDS011;36257;46.052;12.540;2023-05-10T09:45:29;4.53;;;3.72;;
40931;SDS011;36257;46.052;12.540;2023-05-10T09:47:57;4.25;;;3.33;;
40931;SDS011;36257;46.052;12.540;2023-05-10T09:50:24;4.80;;;4.28;;
40931;SDS011;36257;46.052;12.540;2023-05-10T09:52:54;4.72;;;4.15;;
40931;SDS011;36257;46.052;12.540;2023-05-10T09:55:24;4.50;;;4.03;;
40931;SDS011;36257;46.052;12.540;2023-05-10T09:58:11;4.97;;;3.75;;
40931;SDS011;36257;46.052;12.540;2023-05-10T10:00:44;7.00;;;4.00;;
40931;SDS011;36257;46.052;12.540;2023-05-10T10:03:16;5.03;;;4.13;;
40931;SDS011;36257;46.052;12.540;2023-05-10T10:05:43;5.55;;;4.45;;
40931;SDS011;36257;46.052;12.540;2023-05-10T10:08:10;4.47;;;4.07;;
40931;SDS011;36257;46.052;12.540;2023-05-10T10:10:37;4.75;;;3.60;;
40931;SDS011;36257;46.052;12.540;2023-05-10T10:13:05;4.32;;;3.83;;
40931;SDS011;36257;46.052;12.540;2023-05-10T10:15:31;4.70;;;4.10;;
40931;SDS011;36257;46.052;12.540;2023-05-10T10:17:58;4.47;;;4.00;;
40931;SDS011;36257;46.052;12.540;2023-05-10T10:20:25;3.88;;;3.45;;
40931;SDS011;36257;46.052;12.540;2023-05-10T10:22:52;4.72;;;3.72;;
40931;SDS011;36257;46.052;12.540;2023-05-10T10:25:18;4.97;;;4.47;;
40931;SDS011;36257;46.052;12.540;2023-05-10T10:35:29;4.53;;;4.13;;
40931;SDS011;36257;46.052;12.540;2023-05-10T10:40:32;5.10;;;4.25;;
40931;SDS011;36257;46.052;12.540;2023-05-10T10:42:59;7.53;;;4.30;;
40931;SDS011;36257;46.052;12.540;2023-05-10T10:48:36;4.80;;;4.30;;
40931;SDS011;36257;46.052;12.540;2023-05-10T10:51:02;8.00;;;4.75;;
40931;SDS011;36257;46.052;12.540;2023-05-10T10:53:28;4.95;;;4.45;;
40931;SDS011;36257;46.052;12.540;2023-05-10T10:56:27;6.25;;;4.43;;
40931;SDS011;36257;46.052;12.540;2023-05-10T10:58:49;5.10;;;4.22;;
40931;SDS011;36257;46.052;12.540;2023-05-10T11:01:18;5.82;;;4.47;;
40931;SDS011;36257;46.052;12.540;2023-05-10T11:06:32;5.38;;;4.45;;
40931;SDS011;36257;46.052;12.540;2023-05-10T11:08:59;9.93;;;4.78;;
40931;SDS011;36257;46.052;12.540;2023-05-10T11:11:53;5.78;;;4.55;;
40931;SDS011;36257;46.052;12.540;2023-05-10T11:14:23;5.00;;;4.60;;
40931;SDS011;36257;46.052;12.540;2023-05-10T11:16:49;5.32;;;4.22;;
40931;SDS011;36257;46.052;12.540;2023-05-10T11:19:15;5.18;;;4.68;;
40931;SDS011;36257;46.052;12.540;2023-05-10T11:21:49;6.05;;;5.45;;
40931;SDS011;36257;46.052;12.540;2023-05-10T11:24:20;8.18;;;5.05;;
40931;SDS011;36257;46.052;12.540;2023-05-10T11:26:49;8.00;;;5.03;;
40931;SDS011;36257;46.052;12.540;2023-05-10T11:29:16;8.50;;;5.22;;
40931;SDS011;36257;46.052;12.540;2023-05-10T11:31:43;7.07;;;4.82;;
40931;SDS011;36257;46.052;12.540;2023-05-10T11:36:36;5.53;;;4.97;;
40931;SDS011;36257;46.052;12.540;2023-05-10T11:39:02;5.22;;;4.78;;
40931;SDS011;36257;46.052;12.540;2023-05-10T11:41:28;5.85;;;5.25;;
40931;SDS011;36257;46.052;12.540;2023-05-10T11:43:56;6.85;;;5.60;;
40931;SDS011;36257;46.052;12.540;2023-05-10T11:46:25;5.68;;;5.18;;
40931;SDS011;36257;46.052;12.540;2023-05-10T11:48:52;7.30;;;5.25;;
40931;SDS011;36257;46.052;12.540;2023-05-10T11:51:35;5.80;;;4.55;;
40931;SDS011;36257;46.052;12.540;2023-05-10T11:54:11;10.77;;;5.68;;
40931;SDS011;36257;46.052;12.540;2023-05-10T11:56:37;7.20;;;5.30;;
40931;SDS011;36257;46.052;12.540;2023-05-10T11:59:04;6.00;;;5.43;;
40931;SDS011;36257;46.052;12.540;2023-05-10T12:01:30;7.72;;;5.65;;
40931;SDS011;36257;46.052;12.540;2023-05-10T12:03:57;7.55;;;5.63;;
40931;SDS011;36257;46.052;12.540;2023-05-10T12:06:26;7.18;;;6.47;;
40931;SDS011;36257;46.052;12.540;2023-05-10T12:08:53;7.25;;;6.32;;
40931;SDS011;36257;46.052;12.540;2023-05-10T12:11:19;7.20;;;6.35;;
40931;SDS011;36257;46.052;12.540;2023-05-10T12:13:46;8.93;;;5.95;;
40931;SDS011;36257;46.052;12.540;2023-05-10T12:16:22;7.93;;;6.47;;
40931;SDS011;36257;46.052;12.540;2023-05-10T12:18:49;7.70;;;5.82;;
40931;SDS011;36257;46.052;12.540;2023-05-10T12:21:22;7.30;;;6.57;;
40931;SDS011;36257;46.052;12.540;2023-05-10T12:23:51;7.55;;;6.85;;
40931;SDS011;36257;46.052;12.540;2023-05-10T12:26:21;7.18;;;6.47;;
40931;SDS011;36257;46.052;12.540;2023-05-10T12:28:47;12.02;;;7.53;;
40931;SDS011;36257;46.052;12.540;2023-05-10T12:31:13;7.43;;;6.80;;
40931;SDS011;36257;46.052;12.540;2023-05-10T12:33:39;13.77;;;7.55;;
40931;SDS011;36257;46.052;12.540;2023-05-10T12:36:10;7.63;;;6.72;;
40931;SDS011;36257;46.052;12.540;2023-05-10T12:38:37;8.45;;;7.45;;
40931;SDS011;36257;46.052;12.540;2023-05-10T12:41:04;7.50;;;6.65;;
40931;SDS011;36257;46.052;12.540;2023-05-10T12:45:58;11.45;;;10.25;;
40931;SDS011;36257;46.052;12.540;2023-05-10T12:48:24;10.68;;;9.70;;
40931;SDS011;36257;46.052;12.540;2023-05-10T12:50:50;8.77;;;7.97;;
40931;SDS011;36257;46.052;12.540;2023-05-10T12:53:15;9.18;;;8.27;;
40931;SDS011;36257;46.052;12.540;2023-05-10T12:55:42;11.52;;;8.88;;
40931;SDS011;36257;46.052;12.540;2023-05-10T12:58:08;9.43;;;8.68;;
40931;SDS011;36257;46.052;12.540;2023-05-10T13:00:34;11.07;;;8.30;;
40931;SDS011;36257;46.052;12.540;2023-05-10T13:02:59;10.05;;;8.45;;
40931;SDS011;36257;46.052;12.540;2023-05-10T13:05:25;10.48;;;9.25;;
40931;SDS011;36257;46.052;12.540;2023-05-10T13:07:51;9.10;;;7.20;;
40931;SDS011;36257;46.052;12.540;2023-05-10T13:10:16;12.68;;;8.70;;
40931;SDS011;36257;46.052;12.540;2023-05-10T13:12:42;6.50;;;5.82;;
40931;SDS011;36257;46.052;12.540;2023-05-10T13:15:08;9.20;;;6.35;;
40931;SDS011;36257;46.052;12.540;2023-05-10T13:17:34;10.05;;;8.82;;
40931;SDS011;36257;46.052;12.540;2023-05-10T13:19:59;10.02;;;7.88;;
40931;SDS011;36257;46.052;12.540;2023-05-10T13:22:25;10.40;;;9.40;;
40931;SDS011;36257;46.052;12.540;2023-05-10T13:24:51;7.35;;;6.65;;
40931;SDS011;36257;46.052;12.540;2023-05-10T13:27:16;5.40;;;4.90;;
40931;SDS011;36257;46.052;12.540;2023-05-10T13:29:42;10.38;;;5.50;;
40931;SDS011;36257;46.052;12.540;2023-05-10T13:32:08;5.72;;;5.00;;
40931;SDS011;36257;46.052;12.540;2023-05-10T13:34:33;5.30;;;4.80;;
40931;SDS011;36257;46.052;12.540;2023-05-10T13:37:00;5.57;;;5.07;;
40931;SDS011;36257;46.052;12.540;2023-05-10T13:39:26;5.10;;;4.60;;
40931;SDS011;36257;46.052;12.540;2023-05-10T13:41:52;8.20;;;5.25;;
40931;SDS011;36257;46.052;12.540;2023-05-10T13:44:17;8.05;;;6.32;;
40931;SDS011;36257;46.052;12.540;2023-05-10T13:46:45;5.25;;;4.80;;
40931;SDS011;36257;46.052;12.540;2023-05-10T13:49:10;6.75;;;5.22;;
40931;SDS011;36257;46.052;12.540;2023-05-10T13:51:36;5.78;;;4.85;;
40931;SDS011;36257;46.052;12.540;2023-05-10T13:54:02;7.45;;;5.47;;
40931;SDS011;36257;46.052;12.540;2023-05-10T13:56:28;5.30;;;4.55;;
40931;SDS011;36257;46.052;12.540;2023-05-10T13:58:53;7.38;;;4.65;;
40931;SDS011;36257;46.052;12.540;2023-05-10T14:01:19;6.97;;;5.28;;
40931;SDS011;36257;46.052;12.540;2023-05-10T14:03:45;5.47;;;4.55;;
40931;SDS011;36257;46.052;12.540;2023-05-10T14:06:11;5.45;;;4.88;;
40931;SDS011;36257;46.052;12.540;2023-05-10T14:08:36;5.32;;;4.85;;
40931;SDS011;36257;46.052;12.540;2023-05-10T14:11:02;6.43;;;5.13;;
40931;SDS011;36257;46.052;12.540;2023-05-10T14:13:28;5.72;;;4.72;;
40931;SDS011;36257;46.052;12.540;2023-05-10T14:15:53;5.22;;;4.72;;
40931;SDS011;36257;46.052;12.540;2023-05-10T14:18:20;5.45;;;4.95;;
40931;SDS011;36257;46.052;12.540;2023-05-10T14:20:45;6.13;;;4.97;;
40931;SDS011;36257;46.052;12.540;2023-05-10T14:23:11;5.15;;;4.65;;
40931;SDS011;36257;46.052;12.540;2023-05-10T14:25:38;5.57;;;4.60;;
40931;SDS011;36257;46.052;12.540;2023-05-10T14:28:06;5.55;;;4.57;;
40931;SDS011;36257;46.052;12.540;2023-05-10T14:30:32;6.13;;;4.15;;
40931;SDS011;36257;46.052;12.540;2023-05-10T14:32:59;5.17;;;4.50;;
40931;SDS011;36257;46.052;12.540;2023-05-10T14:35:26;5.13;;;4.63;;
40931;SDS011;36257;46.052;12.540;2023-05-10T14:37:52;5.50;;;5.00;;
40931;SDS011;36257;46.052;12.540;2023-05-10T14:40:18;5.32;;;4.45;;
40931;SDS011;36257;46.052;12.540;2023-05-10T14:42:44;5.88;;;4.15;;
40931;SDS011;36257;46.052;12.540;2023-05-10T14:45:10;6.93;;;4.65;;
40931;SDS011;36257;46.052;12.540;2023-05-10T14:47:36;4.88;;;4.47;;
40931;SDS011;36257;46.052;12.540;2023-05-10T14:50:01;5.20;;;4.70;;
40931;SDS011;36257;46.052;12.540;2023-05-10T14:52:28;4.82;;;4.43;;
40931;SDS011;36257;46.052;12.540;2023-05-10T14:54:54;5.25;;;4.63;;
40931;SDS011;36257;46.052;12.540;2023-05-10T14:57:20;6.95;;;4.68;;
40931;SDS011;36257;46.052;12.540;2023-05-10T14:59:45;5.80;;;5.13;;
40931;SDS011;36257;46.052;12.540;2023-05-10T15:02:11;6.57;;;5.38;;
40931;SDS011;36257;46.052;12.540;2023-05-10T15:04:37;5.78;;;5.32;;
40931;SDS011;36257;46.052;12.540;2023-05-10T15:07:03;5.90;;;5.40;;
40931;SDS011;36257;46.052;12.540;2023-05-10T15:09:29;6.97;;;6.28;;
40931;SDS011;36257;46.052;12.540;2023-05-10T15:11:54;6.95;;;6.32;;
40931;SDS011;36257;46.052;12.540;2023-05-10T15:14:20;7.45;;;6.75;;
40931;SDS011;36257;46.052;12.540;2023-05-10T15:16:46;7.07;;;6.40;;
40931;SDS011;36257;46.052;12.540;2023-05-10T15:19:12;7.28;;;6.63;;
40931;SDS011;36257;46.052;12.540;2023-05-10T15:21:38;5.75;;;5.20;;
40931;SDS011;36257;46.052;12.540;2023-05-10T15:24:06;6.20;;;5.70;;
40931;SDS011;36257;46.052;12.540;2023-05-10T15:26:33;6.78;;;5.88;;
40931;SDS011;36257;46.052;12.540;2023-05-10T15:28:58;5.55;;;5.05;;
40931;SDS011;36257;46.052;12.540;2023-05-10T15:31:25;5.07;;;4.60;;